Time;durP1;ratioP1;P1;durP2;ratioP2;P2;SDS_P1;SDS_P2;PMS_P1;PMS_P2;Temp;Humidity;BMP_temperature;BMP_pressure;BME280_temperature;BME280_humidity;BME280_pressure;Samples;Min_cycle;Max_cycle;Signal;HPM_P1;HPM_P2
2021/07/11 00:00:26;;;;;;;18.27;16.37;;;17.50;99.90;;;;;;5051492;28;20410;-81
2021/07/11 00:02:54;;;;;;;19.67;17.03;;;17.50;99.90;;;;;;5053635;28;20455;-81
2021/07/11 00:05:24;;;;;;;21.00;17.70;;;17.40;99.90;;;;;;5054502;28;20428;-82
2021/07/11 00:07:54;;;;;;;33.63;17.97;;;17.50;99.90;;;;;;5056157;28;20438;-78
2021/07/11 00:10:23;;;;;;;18.03;16.10;;;17.40;99.90;;;;;;5055813;28;20901;-82
2021/07/11 00:12:52;;;;;;;20.13;16.17;;;17.30;99.90;;;;;;5049530;28;20423;-83
2021/07/11 00:15:22;;;;;;;21.03;17.33;;;17.30;99.90;;;;;;5047881;28;20435;-79
2021/07/11 00:17:51;;;;;;;18.70;16.70;;;17.20;99.90;;;;;;5051302;28;20431;-81
2021/07/11 00:20:20;;;;;;;21.57;16.93;;;17.20;99.90;;;;;;5051347;28;20441;-79
2021/07/11 00:22:49;;;;;;;19.37;16.57;;;17.20;99.90;;;;;;5045222;28;20440;-82
2021/07/11 00:25:18;;;;;;;16.33;14.77;;;17.10;99.90;;;;;;5035110;28;20474;-82
2021/07/11 00:27:47;;;;;;;18.60;16.60;;;17.10;99.90;;;;;;5036542;28;20407;-80
2021/07/11 00:30:18;;;;;;;18.00;16.10;;;17.10;99.90;;;;;;5035807;28;20431;-81
2021/07/11 00:32:47;;;;;;;16.43;14.80;;;17.20;99.90;;;;;;5037809;28;20424;-82
2021/07/11 00:35:16;;;;;;;19.50;15.40;;;17.10;99.90;;;;;;5038407;28;20427;-82
2021/07/11 00:37:44;;;;;;;18.23;16.30;;;17.00;99.90;;;;;;5037894;28;20517;-81
2021/07/11 00:40:18;;;;;;;15.57;13.63;;;17.00;99.90;;;;;;5037306;28;20457;-82
2021/07/11 00:42:49;;;;;;;17.77;15.80;;;17.00;99.90;;;;;;5039879;28;20439;-82
2021/07/11 00:45:20;;;;;;;18.40;16.03;;;16.90;99.90;;;;;;5043767;28;20410;-80
2021/07/11 00:47:50;;;;;;;17.33;15.57;;;17.00;99.90;;;;;;5050624;28;20478;-80
2021/07/11 00:50:19;;;;;;;17.67;14.63;;;17.00;99.90;;;;;;5049967;28;20586;-81
2021/07/11 00:52:59;;;;;;;17.10;14.70;;;17.00;99.90;;;;;;5049763;28;20429;-81
2021/07/11 00:55:29;;;;;;;19.30;17.20;;;17.00;99.90;;;;;;5032969;28;20407;-82
2021/07/11 00:57:57;;;;;;;17.50;15.10;;;17.00;99.90;;;;;;5033282;28;20442;-80
2021/07/11 01:00:35;;;;;;;16.57;14.87;;;16.90;99.90;;;;;;5033789;28;20981;-80
2021/07/11 01:03:10;;;;;;;20.77;16.20;;;17.00;99.90;;;;;;5033759;28;20824;-80
2021/07/11 01:05:43;;;;;;;18.10;15.60;;;17.00;99.90;;;;;;5033771;28;20422;-79
2021/07/11 01:08:18;;;;;;;20.30;18.30;;;17.00;99.90;;;;;;5033111;28;20829;-80
2021/07/11 01:10:52;;;;;;;18.17;16.30;;;17.00;99.90;;;;;;5034330;28;20468;-81
2021/07/11 01:13:23;;;;;;;16.97;14.73;;;17.00;99.90;;;;;;5032968;28;20418;-82
2021/07/11 01:16:00;;;;;;;17.23;15.50;;;17.00;99.90;;;;;;5034663;28;20522;-79
2021/07/11 01:18:30;;;;;;;18.90;16.90;;;16.90;99.90;;;;;;5035032;28;21057;-81
2021/07/11 01:21:04;;;;;;;16.20;14.10;;;16.90;99.90;;;;;;5036932;28;20484;-79
2021/07/11 01:23:42;;;;;;;18.30;16.20;;;16.90;99.90;;;;;;5034686;28;20440;-80
2021/07/11 01:26:16;;;;;;;16.77;14.97;;;16.90;99.90;;;;;;5034456;28;20427;-81
2021/07/11 01:28:47;;;;;;;16.30;14.57;;;16.80;99.90;;;;;;5034649;28;20467;-81
2021/07/11 01:31:19;;;;;;;20.03;15.00;;;16.80;99.90;;;;;;5033036;28;20438;-80
2021/07/11 01:33:49;;;;;;;16.80;15.10;;;16.80;99.90;;;;;;5034107;28;20398;-80
2021/07/11 01:36:18;;;;;;;16.47;14.50;;;16.70;99.90;;;;;;5032460;28;20411;-80
2021/07/11 01:38:50;;;;;;;17.23;15.17;;;16.80;99.90;;;;;;5033007;28;20457;-81
2021/07/11 01:41:21;;;;;;;15.77;14.07;;;16.80;99.90;;;;;;5032884;28;20550;-81
2021/07/11 01:43:54;;;;;;;17.07;14.90;;;16.80;99.90;;;;;;5032159;28;20414;-79
2021/07/11 01:46:25;;;;;;;15.87;13.67;;;16.60;99.90;;;;;;5031845;28;20447;-81
2021/07/11 01:48:57;;;;;;;15.07;13.57;;;16.70;99.90;;;;;;5032004;28;20499;-80
2021/07/11 01:51:26;;;;;;;15.87;14.23;;;16.70;99.90;;;;;;5033417;28;20442;-82
2021/07/11 01:53:55;;;;;;;16.60;14.90;;;16.70;99.90;;;;;;5031848;28;20447;-82
2021/07/11 01:56:26;;;;;;;17.63;14.20;;;16.70;99.90;;;;;;5033580;28;20410;-81
2021/07/11 01:58:55;;;;;;;16.57;14.63;;;16.60;99.90;;;;;;5031976;28;20469;-82
2021/07/11 02:01:24;;;;;;;15.40;13.80;;;16.60;99.90;;;;;;5032504;28;20456;-80
2021/07/11 02:04:01;;;;;;;15.13;13.40;;;16.70;99.90;;;;;;5051698;28;20447;-79
2021/07/11 02:06:29;;;;;;;16.80;13.77;;;16.70;99.90;;;;;;5058051;28;20395;-79
2021/07/11 02:09:08;;;;;;;15.57;13.57;;;16.60;99.90;;;;;;5061027;28;20418;-83
2021/07/11 02:11:41;;;;;;;13.07;11.73;;;16.60;99.90;;;;;;5042062;28;20537;-82
2021/07/11 02:14:13;;;;;;;15.50;14.00;;;16.60;99.90;;;;;;5042143;28;20503;-83
2021/07/11 02:16:53;;;;;;;14.60;13.10;;;16.50;99.90;;;;;;5042006;28;20519;-83
2021/07/11 02:19:34;;;;;;;13.40;12.07;;;16.50;99.90;;;;;;5041605;28;20545;-83
2021/07/11 02:22:03;;;;;;;13.83;12.57;;;16.50;99.90;;;;;;5041013;28;20464;-82
2021/07/11 02:24:37;;;;;;;14.67;13.33;;;16.40;99.90;;;;;;5040631;28;20414;-82
2021/07/11 02:27:09;;;;;;;13.00;11.47;;;16.40;99.90;;;;;;5041299;28;20394;-83
2021/07/11 02:29:41;;;;;;;13.67;12.37;;;16.40;99.90;;;;;;5041261;28;20494;-83
2021/07/11 02:32:10;;;;;;;14.33;12.80;;;16.30;99.90;;;;;;5041265;28;20434;-82
2021/07/11 02:34:40;;;;;;;13.40;12.13;;;16.40;99.90;;;;;;5041323;28;20440;-82
2021/07/11 02:37:11;;;;;;;14.60;12.40;;;16.40;99.90;;;;;;5041223;28;20407;-82
2021/07/11 02:39:44;;;;;;;12.23;10.10;;;16.40;99.90;;;;;;5040669;28;20469;-83
2021/07/11 02:42:15;;;;;;;14.00;12.13;;;16.30;99.90;;;;;;5043178;28;20434;-82
2021/07/11 02:44:46;;;;;;;12.87;11.40;;;16.30;99.90;;;;;;5040152;28;20816;-82
2021/07/11 02:47:18;;;;;;;13.03;11.73;;;16.30;99.90;;;;;;5040205;28;20563;-82
2021/07/11 02:49:53;;;;;;;17.70;12.50;;;16.20;99.90;;;;;;5039844;28;20984;-82
2021/07/11 02:52:24;;;;;;;15.10;13.57;;;16.30;99.90;;;;;;5041248;28;20493;-83
2021/07/11 02:54:57;;;;;;;13.90;11.70;;;16.40;99.90;;;;;;5040866;28;20936;-82
2021/07/11 02:57:28;;;;;;;16.07;12.00;;;16.40;99.90;;;;;;5041515;28;20482;-83
2021/07/11 03:00:01;;;;;;;14.23;11.80;;;16.30;99.90;;;;;;5041926;28;20812;-83
2021/07/11 03:02:39;;;;;;;12.80;11.60;;;16.30;99.90;;;;;;5042159;28;20448;-83
2021/07/11 03:05:11;;;;;;;14.40;11.40;;;16.30;99.90;;;;;;5052584;28;20456;-81
2021/07/11 03:07:40;;;;;;;13.07;11.67;;;16.30;99.90;;;;;;5056019;28;20488;-81
2021/07/11 03:10:11;;;;;;;16.83;12.93;;;16.30;99.90;;;;;;5054613;28;20455;-81
2021/07/11 03:12:43;;;;;;;13.17;11.87;;;16.30;99.90;;;;;;5052119;28;20451;-83
2021/07/11 03:15:12;;;;;;;12.90;11.60;;;16.30;99.90;;;;;;5040021;28;20901;-82
2021/07/11 03:17:42;;;;;;;13.70;11.73;;;16.30;99.90;;;;;;5039263;28;20994;-82
2021/07/11 03:20:13;;;;;;;13.70;12.30;;;16.20;99.90;;;;;;5034503;28;20509;-81
2021/07/11 03:22:44;;;;;;;13.07;11.53;;;16.20;99.90;;;;;;5055274;28;20394;-80
2021/07/11 03:25:14;;;;;;;13.63;12.20;;;16.10;99.90;;;;;;5059969;28;20430;-79
2021/07/11 03:27:44;;;;;;;17.17;11.87;;;16.10;99.90;;;;;;5060090;28;20462;-82
2021/07/11 03:30:16;;;;;;;14.90;11.70;;;16.10;99.90;;;;;;5061033;28;20452;-79
2021/07/11 03:32:49;;;;;;;14.20;11.40;;;16.20;99.90;;;;;;5050858;28;20520;-82
2021/07/11 03:35:20;;;;;;;14.43;11.50;;;16.30;99.90;;;;;;5040432;28;20816;-83
2021/07/11 03:37:50;;;;;;;12.90;10.10;;;16.30;99.90;;;;;;5040036;28;20425;-82
2021/07/11 03:40:24;;;;;;;14.07;11.10;;;16.40;99.90;;;;;;5056521;22;20527;-83
2021/07/11 03:43:01;;;;;;;11.37;10.17;;;16.40;99.90;;;;;;5041400;28;20393;-83
2021/07/11 03:45:31;;;;;;;13.70;12.40;;;16.60;99.90;;;;;;5019656;28;20392;-85
2021/07/11 03:48:05;;;;;;;13.67;12.33;;;16.70;99.90;;;;;;5028761;28;20436;-83
2021/07/11 03:50:36;;;;;;;11.60;9.77;;;16.80;99.90;;;;;;5019700;28;20437;-85
2021/07/11 03:53:07;;;;;;;13.20;11.00;;;17.00;99.90;;;;;;5003761;28;20841;-86
2021/07/11 03:55:36;;;;;;;12.00;10.70;;;17.30;99.90;;;;;;4986732;28;20410;-83
2021/07/11 03:58:08;;;;;;;11.97;10.87;;;17.60;99.90;;;;;;4986078;28;20400;-84
2021/07/11 04:00:39;;;;;;;11.83;10.70;;;18.00;99.90;;;;;;5003348;28;20451;-84
2021/07/11 04:03:09;;;;;;;10.77;9.67;;;18.60;99.90;;;;;;5008961;28;20404;-83
2021/07/11 04:05:40;;;;;;;14.10;9.63;;;19.50;99.90;;;;;;5014457;28;20529;-84
2021/07/11 04:08:13;;;;;;;9.93;8.93;;;20.60;99.90;;;;;;4997399;28;20469;-84
2021/07/11 04:10:42;;;;;;;12.70;9.63;;;21.50;99.90;;;;;;5007297;28;20439;-85
2021/07/11 04:13:14;;;;;;;9.63;8.83;;;22.20;99.90;;;;;;4987415;28;20492;-84
2021/07/11 04:15:47;;;;;;;9.77;8.97;;;23.00;99.90;;;;;;5004121;28;20415;-84
2021/07/11 04:18:18;;;;;;;11.67;10.47;;;23.50;99.90;;;;;;5003765;28;20381;-84
2021/07/11 04:20:49;;;;;;;9.27;8.37;;;24.10;99.90;;;;;;5003419;28;20823;-84
2021/07/11 04:23:18;;;;;;;10.77;8.67;;;24.50;99.90;;;;;;5003493;28;20432;-84
2021/07/11 04:25:46;;;;;;;9.67;8.87;;;24.80;99.90;;;;;;5002525;28;20442;-84
2021/07/11 04:28:16;;;;;;;9.70;8.70;;;25.40;99.90;;;;;;5006898;28;20378;-84
2021/07/11 04:30:45;;;;;;;10.50;9.07;;;26.10;99.90;;;;;;4984564;28;20501;-84
2021/07/11 04:33:13;;;;;;;10.43;9.43;;;26.60;99.90;;;;;;5011861;28;20429;-84
2021/07/11 04:35:42;;;;;;;9.17;8.27;;;26.40;99.90;;;;;;4989200;28;20413;-85
2021/07/11 04:38:10;;;;;;;9.83;8.90;;;26.70;99.90;;;;;;5006292;28;20422;-82
2021/07/11 04:40:39;;;;;;;7.70;6.93;;;27.00;99.90;;;;;;5003438;28;21002;-85
2021/07/11 04:43:07;;;;;;;8.30;7.50;;;27.80;99.90;;;;;;5002216;28;20452;-85
2021/07/11 04:45:37;;;;;;;8.73;7.93;;;27.80;99.90;;;;;;5001193;28;20401;-85
2021/07/11 04:48:06;;;;;;;8.17;7.37;;;28.40;99.90;;;;;;5002729;28;20406;-84
2021/07/11 04:50:34;;;;;;;8.23;7.50;;;28.80;99.90;;;;;;5002559;28;20485;-84
2021/07/11 04:53:02;;;;;;;8.03;7.33;;;29.30;99.90;;;;;;5003167;28;20414;-85
2021/07/11 04:55:31;;;;;;;10.33;8.73;;;29.30;99.90;;;;;;4985519;28;20504;-84
2021/07/11 04:57:59;;;;;;;9.40;8.50;;;28.80;99.90;;;;;;5007620;28;20781;-84
2021/07/11 05:00:27;;;;;;;9.23;8.30;;;27.70;99.90;;;;;;4988286;28;20505;-84
2021/07/11 05:02:56;;;;;;;10.53;9.43;;;26.70;99.90;;;;;;5006343;28;20415;-83
2021/07/11 05:05:25;;;;;;;10.57;9.47;;;25.50;99.90;;;;;;5010818;28;20799;-84
2021/07/11 05:07:53;;;;;;;10.03;9.03;;;24.30;99.90;;;;;;5004843;28;20433;-85
2021/07/11 05:10:21;;;;;;;8.90;8.20;;;23.40;99.90;;;;;;4984113;28;20489;-84
2021/07/11 05:12:49;;;;;;;8.77;7.90;;;22.60;99.90;;;;;;5001710;28;20500;-84
2021/07/11 05:15:17;;;;;;;8.07;7.27;;;22.30;99.90;;;;;;5001866;28;20400;-83
2021/07/11 05:17:45;;;;;;;9.27;8.27;;;22.40;99.90;;;;;;4985374;28;20430;-84
2021/07/11 05:20:15;;;;;;;9.40;8.50;;;22.40;99.90;;;;;;5002053;28;20528;-83
2021/07/11 05:22:43;;;;;;;10.63;8.10;;;22.10;99.90;;;;;;4999375;28;20812;-83
2021/07/11 05:25:12;;;;;;;9.33;8.43;;;22.00;99.90;;;;;;4988270;28;20450;-83
2021/07/11 05:27:40;;;;;;;9.30;8.50;;;21.80;99.90;;;;;;5003027;28;20526;-84
2021/07/11 05:30:09;;;;;;;9.20;8.30;;;21.70;99.90;;;;;;5001791;28;20429;-84
2021/07/11 05:32:37;;;;;;;9.73;8.83;;;21.40;99.90;;;;;;5001765;28;20428;-84
2021/07/11 05:35:05;;;;;;;9.10;7.33;;;21.40;99.90;;;;;;4984918;28;20419;-84
2021/07/11 05:37:35;;;;;;;8.63;7.83;;;22.10;99.90;;;;;;5002311;28;20453;-84
2021/07/11 05:40:04;;;;;;;8.90;8.10;;;22.20;99.90;;;;;;5004036;28;20469;-84
2021/07/11 05:42:32;;;;;;;8.73;8.03;;;22.20;99.90;;;;;;5002893;28;20449;-84
2021/07/11 05:45:00;;;;;;;10.13;7.77;;;21.60;99.90;;;;;;5004269;28;20437;-85
2021/07/11 05:47:28;;;;;;;9.50;8.50;;;21.50;99.90;;;;;;5004900;28;20406;-85
2021/07/11 05:49:57;;;;;;;10.43;9.53;;;21.20;99.90;;;;;;4983956;28;20424;-85
2021/07/11 05:52:25;;;;;;;9.00;8.10;;;21.20;99.90;;;;;;4984054;28;20424;-85
2021/07/11 05:54:57;;;;;;;8.20;7.43;;;21.20;99.90;;;;;;5003577;28;20433;-83
2021/07/11 05:57:27;;;;;;;8.80;8.00;;;21.30;99.90;;;;;;5011942;28;20424;-83
2021/07/11 05:59:55;;;;;;;8.87;8.07;;;21.40;99.90;;;;;;4996868;28;20468;-83
2021/07/11 06:02:24;;;;;;;8.80;8.00;;;21.30;99.90;;;;;;4995529;28;20473;-83
2021/07/11 06:04:52;;;;;;;8.63;8.03;;;21.30;99.90;;;;;;5012309;28;20386;-85
2021/07/11 06:07:20;;;;;;;8.83;7.63;;;21.30;99.90;;;;;;5012149;28;20430;-85
2021/07/11 06:09:48;;;;;;;9.47;8.47;;;21.30;99.90;;;;;;5012130;28;20421;-82
2021/07/11 06:12:17;;;;;;;8.90;8.10;;;21.40;99.90;;;;;;5013524;28;20446;-85
2021/07/11 06:14:45;;;;;;;9.10;8.40;;;21.40;99.90;;;;;;4989267;28;20463;-84
2021/07/11 06:17:14;;;;;;;7.63;6.90;;;21.50;99.90;;;;;;5001655;28;20400;-84
2021/07/11 06:19:42;;;;;;;8.10;7.27;;;21.70;99.90;;;;;;4999941;28;20419;-84
2021/07/11 06:22:10;;;;;;;9.27;7.77;;;21.90;99.90;;;;;;4981413;28;20456;-83
2021/07/11 06:24:38;;;;;;;6.70;6.10;;;22.10;99.90;;;;;;5003393;28;20427;-86
2021/07/11 06:27:07;;;;;;;7.53;6.77;;;22.00;99.90;;;;;;5007527;28;20469;-85
2021/07/11 06:29:36;;;;;;;7.13;6.47;;;22.00;99.90;;;;;;5002265;28;20405;-84
2021/07/11 06:32:05;;;;;;;7.33;6.67;;;22.10;99.90;;;;;;4986270;28;20458;-86
2021/07/11 06:34:43;;;;;;;7.57;5.67;;;22.30;99.90;;;;;;5011260;28;20407;-85
2021/07/11 06:37:11;;;;;;;5.67;5.10;;;22.50;99.90;;;;;;4993510;28;20429;-84
2021/07/11 06:39:39;;;;;;;6.57;5.93;;;22.60;99.90;;;;;;5010238;28;20453;-84
2021/07/11 06:42:08;;;;;;;6.00;5.50;;;22.60;99.90;;;;;;5010348;28;20543;-86
2021/07/11 06:44:38;;;;;;;6.10;5.43;;;22.60;99.90;;;;;;5006185;28;20400;-85
2021/07/11 06:47:08;;;;;;;6.40;5.80;;;22.70;99.90;;;;;;5008902;28;20446;-88
2021/07/11 06:49:36;;;;;;;5.97;5.47;;;22.70;99.90;;;;;;4990754;28;20400;-85
2021/07/11 06:52:05;;;;;;;6.20;5.63;;;22.90;99.90;;;;;;5002478;28;20488;-86
2021/07/11 06:54:33;;;;;;;4.40;4.03;;;23.00;99.90;;;;;;5005834;28;20513;-84
2021/07/11 06:57:06;;;;;;;5.30;4.80;;;23.10;99.90;;;;;;5007357;28;20516;-85
2021/07/11 06:59:34;;;;;;;6.10;4.60;;;23.20;99.90;;;;;;5005909;28;20421;-84
2021/07/11 07:02:03;;;;;;;5.43;4.20;;;23.30;99.90;;;;;;4987888;28;21050;-84
2021/07/11 07:04:32;;;;;;;5.00;4.60;;;23.50;99.90;;;;;;5004930;28;20433;-84
2021/07/11 07:07:00;;;;;;;4.63;4.23;;;23.70;99.90;;;;;;5005579;28;20442;-84
2021/07/11 07:09:28;;;;;;;4.20;3.90;;;23.90;99.90;;;;;;5003760;28;20449;-85
2021/07/11 07:11:57;;;;;;;4.40;4.00;;;24.10;99.90;;;;;;5005809;28;20469;-85
2021/07/11 07:14:25;;;;;;;5.43;4.93;;;24.20;99.90;;;;;;5015755;28;20449;-84
2021/07/11 07:16:53;;;;;;;5.67;5.17;;;24.30;99.90;;;;;;5019714;28;20381;-86
2021/07/11 07:19:22;;;;;;;5.30;4.80;;;24.30;99.90;;;;;;5018639;28;20461;-86
2021/07/11 07:21:50;;;;;;;5.60;5.10;;;24.30;99.90;;;;;;5020082;28;20431;-86
2021/07/11 07:24:18;;;;;;;4.43;4.00;;;24.30;99.90;;;;;;5006963;28;20438;-85
2021/07/11 07:26:47;;;;;;;5.20;4.80;;;24.40;99.90;;;;;;5004975;28;20466;-85
2021/07/11 07:29:15;;;;;;;6.90;4.17;;;24.70;99.90;;;;;;5008146;28;20426;-87
2021/07/11 07:31:44;;;;;;;4.80;4.30;;;24.80;99.90;;;;;;5008261;28;20456;-84
2021/07/11 07:34:12;;;;;;;4.70;3.47;;;24.90;99.90;;;;;;5007164;28;20430;-85
2021/07/11 07:36:42;;;;;;;4.03;3.37;;;24.90;99.90;;;;;;5007010;28;20501;-85
2021/07/11 07:39:10;;;;;;;4.57;3.60;;;25.00;99.90;;;;;;5006243;28;20940;-87
2021/07/11 07:41:38;;;;;;;3.43;3.13;;;25.10;99.90;;;;;;5004817;28;20481;-85
2021/07/11 07:44:07;;;;;;;3.20;2.90;;;25.10;99.90;;;;;;5006234;28;20417;-85
2021/07/11 07:46:35;;;;;;;3.13;2.93;;;25.00;99.90;;;;;;5003768;28;20444;-84
2021/07/11 07:49:04;;;;;;;3.50;3.20;;;25.00;99.90;;;;;;5002895;28;20426;-84
2021/07/11 07:51:32;;;;;;;4.17;3.77;;;25.10;99.90;;;;;;5002306;28;20480;-85
2021/07/11 07:54:01;;;;;;;3.23;2.93;;;25.20;99.90;;;;;;5003291;28;20436;-86
2021/07/11 07:56:29;;;;;;;3.13;2.83;;;25.10;99.90;;;;;;4984348;28;20442;-85
2021/07/11 07:58:57;;;;;;;4.90;3.03;;;25.30;99.90;;;;;;5001983;28;20516;-84
2021/07/11 08:01:26;;;;;;;4.00;3.20;;;25.40;99.90;;;;;;5001911;28;20481;-84
2021/07/11 08:03:54;;;;;;;3.83;2.73;;;25.50;99.90;;;;;;5002056;28;20430;-85
2021/07/11 08:06:23;;;;;;;3.10;2.80;;;25.80;99.90;;;;;;5002710;28;20538;-84
2021/07/11 08:08:51;;;;;;;4.07;3.07;;;25.80;99.90;;;;;;4984566;28;20466;-84
2021/07/11 08:11:20;;;;;;;3.97;3.00;;;25.60;99.90;;;;;;5004663;28;20513;-85
2021/07/11 08:13:49;;;;;;;3.67;3.37;;;25.50;99.90;;;;;;5013600;28;20456;-85
2021/07/11 08:16:17;;;;;;;4.17;3.77;;;25.70;99.90;;;;;;5014076;28;20384;-84
2021/07/11 08:18:48;;;;;;;3.70;3.40;;;25.50;99.90;;;;;;4998136;28;20433;-85
2021/07/11 08:21:17;;;;;;;4.40;3.97;;;25.50;99.90;;;;;;5006921;28;20441;-86
2021/07/11 08:23:45;;;;;;;3.70;3.40;;;25.40;99.90;;;;;;4988987;28;20446;-85
2021/07/11 08:26:13;;;;;;;5.50;3.50;;;25.40;99.90;;;;;;5004978;28;20430;-87
2021/07/11 08:28:43;;;;;;;3.70;3.40;;;25.50;99.90;;;;;;4986826;28;20433;-87
2021/07/11 08:31:11;;;;;;;3.87;3.57;;;25.50;99.90;;;;;;4986783;28;20891;-87
2021/07/11 08:33:39;;;;;;;4.40;4.00;;;25.50;99.90;;;;;;4988695;28;20476;-86
2021/07/11 08:36:08;;;;;;;4.10;3.60;;;25.80;99.90;;;;;;5005365;28;20426;-87
2021/07/11 08:38:36;;;;;;;3.87;3.47;;;26.00;99.90;;;;;;5005169;28;20418;-86
2021/07/11 08:41:04;;;;;;;4.27;3.87;;;26.10;99.90;;;;;;4986940;28;20509;-86
2021/07/11 08:43:32;;;;;;;4.40;4.00;;;26.30;99.90;;;;;;4989492;28;20889;-86
2021/07/11 08:46:02;;;;;;;6.07;5.57;;;26.50;99.90;;;;;;4993682;28;20446;-86
2021/07/11 08:48:30;;;;;;;4.77;4.37;;;26.40;99.90;;;;;;5010233;28;20453;-86
2021/07/11 08:51:02;;;;;;;4.37;3.50;;;26.10;99.90;;;;;;5006031;28;20442;-87
2021/07/11 08:53:33;;;;;;;4.10;3.70;;;26.00;99.90;;;;;;5007201;28;20425;-86
2021/07/11 08:56:02;;;;;;;4.40;4.00;;;26.00;99.90;;;;;;5008033;28;20461;-85
2021/07/11 08:58:31;;;;;;;4.70;4.30;;;26.00;99.90;;;;;;5007755;28;20538;-86
2021/07/11 09:00:59;;;;;;;4.43;3.90;;;26.10;99.90;;;;;;5008223;28;20454;-85
2021/07/11 09:03:28;;;;;;;4.40;4.07;;;26.00;99.90;;;;;;5008033;28;20470;-85
2021/07/11 09:05:57;;;;;;;4.90;3.97;;;26.30;99.90;;;;;;5008153;28;20424;-87
2021/07/11 09:08:25;;;;;;;4.37;3.13;;;26.50;99.90;;;;;;5007275;28;20634;-86
2021/07/11 09:10:56;;;;;;;3.90;3.60;;;26.50;99.90;;;;;;5006457;28;20481;-86
2021/07/11 09:13:27;;;;;;;4.37;3.97;;;26.60;99.90;;;;;;5009120;28;20509;-86
2021/07/11 09:15:57;;;;;;;5.10;4.60;;;26.70;99.90;;;;;;5008319;28;20418;-87
2021/07/11 09:18:26;;;;;;;4.40;4.00;;;26.80;99.90;;;;;;4990177;28;20445;-88
2021/07/11 09:21:00;;;;;;;4.23;3.70;;;26.90;99.90;;;;;;4987438;28;20465;-86
2021/07/11 09:23:29;;;;;;;4.27;3.87;;;27.00;99.90;;;;;;5004995;28;20904;-87
2021/07/11 09:26:03;;;;;;;4.57;4.17;;;27.00;99.90;;;;;;5006639;28;20414;-86
2021/07/11 09:28:34;;;;;;;5.00;4.60;;;26.90;99.90;;;;;;5010320;28;20421;-87
2021/07/11 09:31:08;;;;;;;4.13;3.83;;;26.70;99.90;;;;;;4994588;28;20458;-86
2021/07/11 09:33:38;;;;;;;4.90;4.33;;;26.90;99.90;;;;;;5011625;28;20445;-87
2021/07/11 09:36:10;;;;;;;4.70;4.10;;;27.10;99.90;;;;;;4992186;28;20485;-85
2021/07/11 09:38:39;;;;;;;4.10;3.70;;;27.30;99.90;;;;;;4989311;28;20537;-87
2021/07/11 09:41:15;;;;;;;4.20;3.70;;;27.20;99.90;;;;;;5052628;22;20479;-80
2021/07/11 09:43:45;;;;;;;3.90;3.60;;;27.20;99.90;;;;;;5029247;28;20535;-79
2021/07/11 09:46:13;;;;;;;3.67;3.37;;;27.30;99.90;;;;;;5022053;28;20482;-79
2021/07/11 09:48:42;;;;;;;4.40;4.00;;;27.50;99.90;;;;;;5020452;28;20518;-80
2021/07/11 09:51:20;;;;;;;3.77;3.47;;;27.70;99.90;;;;;;4999545;28;20465;-82
2021/07/11 09:53:50;;;;;;;7.00;3.93;;;27.50;99.90;;;;;;5000074;28;20479;-80
2021/07/11 09:56:32;;;;;;;4.43;4.03;;;27.50;99.90;;;;;;5018141;28;20432;-81
2021/07/11 09:59:02;;;;;;;3.37;3.07;;;27.50;99.90;;;;;;5000527;28;20457;-80
2021/07/11 10:01:30;;;;;;;3.40;3.10;;;27.40;99.90;;;;;;5017045;28;20526;-80
2021/07/11 10:04:00;;;;;;;4.20;3.80;;;27.10;99.90;;;;;;5017395;28;20507;-80
2021/07/11 10:06:31;;;;;;;6.23;3.10;;;26.80;99.90;;;;;;5017876;28;20938;-80
2021/07/11 10:08:59;;;;;;;4.13;3.20;;;26.70;99.90;;;;;;5017277;28;20436;-80
2021/07/11 10:11:28;;;;;;;4.07;3.73;;;26.80;99.90;;;;;;5017072;28;20448;-79
2021/07/11 10:13:57;;;;;;;3.27;2.97;;;26.90;99.90;;;;;;5017517;28;20960;-80
2021/07/11 10:16:28;;;;;;;4.37;3.40;;;26.70;99.90;;;;;;5000529;28;20441;-79
2021/07/11 10:18:57;;;;;;;3.90;3.60;;;26.50;99.90;;;;;;5018614;28;20425;-82
2021/07/11 10:21:30;;;;;;;3.47;3.17;;;26.70;99.90;;;;;;5002088;28;20450;-81
2021/07/11 10:23:59;;;;;;;4.60;4.30;;;27.10;99.90;;;;;;5018890;28;20930;-80
2021/07/11 10:26:37;;;;;;;4.47;4.00;;;27.50;99.90;;;;;;5018002;28;20421;-80
2021/07/11 10:29:12;;;;;;;4.10;3.20;;;27.50;99.90;;;;;;5004683;28;20440;-82
2021/07/11 10:31:45;;;;;;;5.53;4.93;;;27.50;99.90;;;;;;5023444;28;20451;-81
2021/07/11 10:34:25;;;;;;;3.80;3.30;;;27.60;99.90;;;;;;5023035;28;20448;-81
2021/07/11 10:36:54;;;;;;;3.90;3.47;;;27.40;99.90;;;;;;5022056;28;20945;-81
2021/07/11 10:39:35;;;;;;;3.80;3.47;;;27.50;99.90;;;;;;5006055;28;20544;-81
2021/07/11 10:42:04;;;;;;;3.73;3.33;;;27.60;99.90;;;;;;5022991;28;20495;-80
2021/07/11 10:44:33;;;;;;;4.20;3.80;;;27.40;99.90;;;;;;5021195;28;20475;-81
2021/07/11 10:47:06;;;;;;;3.90;3.60;;;27.40;99.90;;;;;;5003993;28;20437;-80
2021/07/11 10:49:36;;;;;;;3.77;3.43;;;27.20;99.90;;;;;;5004731;28;20533;-82
2021/07/11 10:52:08;;;;;;;3.37;3.13;;;27.40;99.90;;;;;;5004049;28;20515;-82
2021/07/11 10:54:38;;;;;;;4.20;3.80;;;27.50;99.90;;;;;;5022519;28;20475;-83
2021/07/11 10:57:08;;;;;;;4.20;3.80;;;27.60;99.90;;;;;;5004816;28;20445;-82
2021/07/11 10:59:37;;;;;;;5.03;4.63;;;27.60;99.90;;;;;;5022148;28;20432;-83
2021/07/11 11:02:17;;;;;;;4.20;3.90;;;27.80;99.90;;;;;;5005343;28;20567;-82
2021/07/11 11:04:46;;;;;;;4.07;3.77;;;27.70;99.90;;;;;;5005196;28;20623;-82
2021/07/11 11:07:18;;;;;;;4.03;3.73;;;28.00;99.90;;;;;;5021765;28;20421;-81
2021/07/11 11:09:48;;;;;;;3.90;3.60;;;28.30;99.90;;;;;;5021569;28;20799;-82
2021/07/11 11:12:21;;;;;;;3.50;3.20;;;28.10;99.90;;;;;;5003585;28;20511;-81
2021/07/11 11:14:55;;;;;;;4.73;3.50;;;28.10;99.90;;;;;;5004244;28;20491;-82
2021/07/11 11:17:31;;;;;;;3.33;3.03;;;28.00;99.90;;;;;;5022469;28;20429;-82
2021/07/11 11:20:00;;;;;;;4.60;4.20;;;27.70;99.90;;;;;;5014031;28;20433;-81
2021/07/11 11:22:29;;;;;;;4.40;3.93;;;27.50;99.90;;;;;;5019583;28;20483;-82
2021/07/11 11:24:59;;;;;;;3.10;2.80;;;27.50;99.90;;;;;;5019140;28;20499;-83
2021/07/11 11:27:36;;;;;;;3.90;3.50;;;27.80;99.90;;;;;;5032603;28;20432;-82
2021/07/11 11:30:13;;;;;;;3.77;3.47;;;27.80;99.90;;;;;;5003403;28;20763;-81
2021/07/11 11:32:41;;;;;;;3.87;3.47;;;27.70;99.90;;;;;;5003060;28;20555;-82
2021/07/11 11:35:11;;;;;;;4.20;3.80;;;27.60;99.90;;;;;;5002817;28;20441;-83
2021/07/11 11:37:46;;;;;;;4.63;4.23;;;28.00;99.90;;;;;;5021258;28;20807;-83
2021/07/11 11:40:16;;;;;;;4.07;3.63;;;28.00;99.90;;;;;;5019758;28;20428;-82
2021/07/11 11:42:46;;;;;;;4.00;2.90;;;28.20;99.90;;;;;;5012710;28;20467;-82
2021/07/11 11:45:15;;;;;;;3.60;3.30;;;28.50;99.90;;;;;;5039860;28;20439;-82
2021/07/11 11:47:43;;;;;;;3.63;3.30;;;28.80;99.90;;;;;;5039679;28;20416;-82
2021/07/11 11:50:17;;;;;;;3.90;3.60;;;28.90;99.90;;;;;;5039700;28;20465;-83
2021/07/11 11:52:47;;;;;;;3.30;3.00;;;28.90;99.90;;;;;;5022593;28;20524;-83
2021/07/11 11:55:16;;;;;;;4.07;3.30;;;29.00;99.90;;;;;;5022772;28;20425;-83
2021/07/11 11:57:44;;;;;;;3.30;3.00;;;29.10;99.90;;;;;;5039562;28;20415;-83
2021/07/11 12:00:22;;;;;;;3.30;3.00;;;29.00;99.90;;;;;;5022495;28;20448;-83
2021/07/11 12:03:08;;;;;;;3.63;3.33;;;28.60;99.90;;;;;;5039204;28;20481;-83
2021/07/11 12:05:37;;;;;;;4.03;3.10;;;28.60;99.90;;;;;;5014533;28;20448;-83
2021/07/11 12:08:22;;;;;;;3.87;3.40;;;28.50;99.90;;;;;;5005185;28;20444;-83
2021/07/11 12:10:50;;;;;;;5.00;3.70;;;28.70;99.90;;;;;;5021824;28;20441;-83
2021/07/11 12:13:23;;;;;;;4.13;3.73;;;28.90;99.90;;;;;;5003908;28;20440;-82
2021/07/11 12:16:02;;;;;;;3.60;3.30;;;29.20;99.90;;;;;;5003510;28;20448;-83
2021/07/11 12:18:42;;;;;;;5.23;4.70;;;29.30;99.90;;;;;;5021003;28;20511;-82
2021/07/11 12:21:10;;;;;;;4.63;4.23;;;29.30;99.90;;;;;;5021060;28;20799;-81
2021/07/11 12:23:40;;;;;;;3.47;3.17;;;29.30;99.90;;;;;;5003678;28;20439;-82
2021/07/11 12:26:08;;;;;;;3.37;3.07;;;29.10;99.90;;;;;;5003855;28;20460;-82
2021/07/11 12:28:40;;;;;;;3.23;2.93;;;29.00;99.90;;;;;;5002148;28;20449;-83
2021/07/11 12:31:19;;;;;;;3.20;3.00;;;29.30;99.90;;;;;;5005301;28;20507;-82
2021/07/11 12:33:49;;;;;;;4.47;3.40;;;29.50;99.90;;;;;;5020714;28;20417;-82
2021/07/11 12:36:17;;;;;;;3.70;3.40;;;29.30;99.90;;;;;;5002413;28;20437;-82
2021/07/11 12:38:46;;;;;;;3.23;2.90;;;29.50;99.90;;;;;;5003011;28;20475;-82
2021/07/11 12:41:14;;;;;;;3.70;3.40;;;29.80;99.90;;;;;;5003138;28;20477;-82
2021/07/11 12:43:47;;;;;;;2.80;2.43;;;29.80;99.90;;;;;;5032098;28;20464;-82
2021/07/11 12:46:17;;;;;;;3.60;3.17;;;29.90;99.90;;;;;;5015731;28;20505;-84
2021/07/11 12:48:47;;;;;;;5.40;3.17;;;29.90;99.90;;;;;;5012909;28;20816;-82
2021/07/11 12:51:21;;;;;;;3.53;3.23;;;29.80;99.90;;;;;;5019245;28;20448;-82
2021/07/11 12:53:53;;;;;;;3.50;3.20;;;29.90;99.90;;;;;;5008137;28;20791;-82
2021/07/11 12:56:23;;;;;;;3.57;3.20;;;29.90;99.90;;;;;;5006466;28;20445;-82